CYBD

Bella Coola Airport

Bella Coola, British Columbia, Canada

CYBD 242043Z 27007KT 250V310 8SM OVC020 14/13 A3006 RMK SC8 SLP182

Observed Flight Rules
Sep-24 @ 20:43 UTC (28 minutes ago)
 
Marginal Visual Flight Rules
Wind Visibility Clouds
270° at 7 knots 8 miles
  • Overcast at 2,000' AGL
Temperatures Readings
Current 14°C / 57°F
Dewpoint 13°C / 55°F
Humidity 94%
Altimeter 30.06" Hg
Pressure 1018.2 hPa
Elevation 35
Observed Flight Rules
Sep-24 @ 20:43 UTC
(28 minutes ago)
 
MVFR
Wind Visibility
270° at 7 knots 8 miles
Clouds
  • Overcast at 2,000' AGL
Temperature Dewpoint
14°C / 57°F 13°C / 55°F
Humidity Altimeter Pressure
94% 30.06" Hg 1018.2 hPa